PHOENIX SKY HARBOR INTL

KPHX (PHX)
Phoenix, Arizona
Towered

Vatsim Metar:
KPHX 190951Z 07006KT 10SM FEW250 31/04 A2982 RMK AO2 SLP074 T03060044